sensor_id;sensor_type;location;lat;lon;timestamp;temperature;humidity
20998;DHT22;10657;51.276;6.390;2022-10-17T00:00:13;14.90;99.90
20998;DHT22;10657;51.276;6.390;2022-10-17T00:02:40;14.90;99.90
20998;DHT22;10657;51.276;6.390;2022-10-17T00:05:07;14.90;99.90
20998;DHT22;10657;51.276;6.390;2022-10-17T00:07:34;14.80;99.90
20998;DHT22;10657;51.276;6.390;2022-10-17T00:10:00;14.80;99.90
20998;DHT22;10657;51.276;6.390;2022-10-17T00:12:27;14.80;99.90
20998;DHT22;10657;51.276;6.390;2022-10-17T00:14:53;14.80;99.90
20998;DHT22;10657;51.276;6.390;2022-10-17T00:17:20;14.80;99.90
20998;DHT22;10657;51.276;6.390;2022-10-17T00:19:46;14.90;99.90
20998;DHT22;10657;51.276;6.390;2022-10-17T00:22:13;14.90;99.90
20998;DHT22;10657;51.276;6.390;2022-10-17T00:24:40;14.90;99.90
20998;DHT22;10657;51.276;6.390;2022-10-17T00:27:07;14.90;99.90
20998;DHT22;10657;51.276;6.390;2022-10-17T00:29:33;14.90;99.90
20998;DHT22;10657;51.276;6.390;2022-10-17T00:32:00;14.90;99.90
20998;DHT22;10657;51.276;6.390;2022-10-17T00:34:28;14.90;99.90
20998;DHT22;10657;51.276;6.390;2022-10-17T00:36:55;14.90;99.90
20998;DHT22;10657;51.276;6.390;2022-10-17T00:39:21;14.90;99.90
20998;DHT22;10657;51.276;6.390;2022-10-17T00:41:48;14.90;99.90
20998;DHT22;10657;51.276;6.390;2022-10-17T00:46:58;14.90;99.90
20998;DHT22;10657;51.276;6.390;2022-10-17T00:49:27;14.90;99.90
20998;DHT22;10657;51.276;6.390;2022-10-17T00:51:59;14.90;99.90
20998;DHT22;10657;51.276;6.390;2022-10-17T00:54:32;14.90;99.90
20998;DHT22;10657;51.276;6.390;2022-10-17T00:56:59;14.90;99.90
20998;DHT22;10657;51.276;6.390;2022-10-17T00:59:27;14.90;99.90
20998;DHT22;10657;51.276;6.390;2022-10-17T01:02:15;14.90;99.90
20998;DHT22;10657;51.276;6.390;2022-10-17T01:04:45;14.90;99.90
20998;DHT22;10657;51.276;6.390;2022-10-17T01:07:12;14.80;99.90
20998;DHT22;10657;51.276;6.390;2022-10-17T01:09:40;14.80;99.90
20998;DHT22;10657;51.276;6.390;2022-10-17T01:15:49;14.80;99.90
20998;DHT22;10657;51.276;6.390;2022-10-17T01:18:43;14.80;99.90
20998;DHT22;10657;51.276;6.390;2022-10-17T01:32:19;14.80;99.90
20998;DHT22;10657;51.276;6.390;2022-10-17T01:34:58;14.80;99.90
20998;DHT22;10657;51.276;6.390;2022-10-17T01:37:43;14.80;99.90
20998;DHT22;10657;51.276;6.390;2022-10-17T01:40:27;14.80;99.90
20998;DHT22;10657;51.276;6.390;2022-10-17T01:43:07;14.80;99.90
20998;DHT22;10657;51.276;6.390;2022-10-17T01:45:48;14.80;99.90
20998;DHT22;10657;51.276;6.390;2022-10-17T01:48:21;14.80;99.90
20998;DHT22;10657;51.276;6.390;2022-10-17T01:50:56;14.70;99.90
20998;DHT22;10657;51.276;6.390;2022-10-17T01:53:29;14.70;99.90
20998;DHT22;10657;51.276;6.390;2022-10-17T01:56:00;14.70;99.90
20998;DHT22;10657;51.276;6.390;2022-10-17T01:58:31;14.80;99.90
20998;DHT22;10657;51.276;6.390;2022-10-17T02:01:02;14.70;99.90
20998;DHT22;10657;51.276;6.390;2022-10-17T02:03:30;14.70;99.90
20998;DHT22;10657;51.276;6.390;2022-10-17T02:06:00;14.70;99.90
20998;DHT22;10657;51.276;6.390;2022-10-17T02:08:39;14.70;99.90
20998;DHT22;10657;51.276;6.390;2022-10-17T02:11:20;14.70;99.90
20998;DHT22;10657;51.276;6.390;2022-10-17T02:14:29;14.70;99.90
20998;DHT22;10657;51.276;6.390;2022-10-17T02:24:44;14.60;99.90
20998;DHT22;10657;51.276;6.390;2022-10-17T02:27:17;14.60;99.90
20998;DHT22;10657;51.276;6.390;2022-10-17T02:29:56;14.60;99.90
20998;DHT22;10657;51.276;6.390;2022-10-17T02:34:59;14.60;99.90
20998;DHT22;10657;51.276;6.390;2022-10-17T02:37:28;14.60;99.90
20998;DHT22;10657;51.276;6.390;2022-10-17T02:39:58;14.50;99.90
20998;DHT22;10657;51.276;6.390;2022-10-17T02:42:26;14.60;99.90
20998;DHT22;10657;51.276;6.390;2022-10-17T02:44:58;14.60;99.90
20998;DHT22;10657;51.276;6.390;2022-10-17T02:47:28;14.60;99.90
20998;DHT22;10657;51.276;6.390;2022-10-17T02:49:57;14.60;99.90
20998;DHT22;10657;51.276;6.390;2022-10-17T02:52:34;14.60;99.90
20998;DHT22;10657;51.276;6.390;2022-10-17T02:57:44;14.60;99.90
20998;DHT22;10657;51.276;6.390;2022-10-17T03:00:13;14.60;99.90
20998;DHT22;10657;51.276;6.390;2022-10-17T03:02:44;14.60;99.90
20998;DHT22;10657;51.276;6.390;2022-10-17T03:05:14;14.60;99.90
20998;DHT22;10657;51.276;6.390;2022-10-17T03:07:40;14.60;99.90
20998;DHT22;10657;51.276;6.390;2022-10-17T03:10:07;14.60;99.90
20998;DHT22;10657;51.276;6.390;2022-10-17T03:12:34;14.60;99.90
20998;DHT22;10657;51.276;6.390;2022-10-17T03:15:01;14.60;99.90
20998;DHT22;10657;51.276;6.390;2022-10-17T03:17:28;14.60;99.90
20998;DHT22;10657;51.276;6.390;2022-10-17T03:19:54;14.60;99.90
20998;DHT22;10657;51.276;6.390;2022-10-17T03:22:21;14.60;99.90
20998;DHT22;10657;51.276;6.390;2022-10-17T03:24:47;14.70;99.90
20998;DHT22;10657;51.276;6.390;2022-10-17T03:27:14;14.60;99.90
20998;DHT22;10657;51.276;6.390;2022-10-17T03:29:41;14.60;99.90
20998;DHT22;10657;51.276;6.390;2022-10-17T03:32:07;14.60;99.90
20998;DHT22;10657;51.276;6.390;2022-10-17T03:34:34;14.60;99.90
20998;DHT22;10657;51.276;6.390;2022-10-17T03:37:01;14.60;99.90
20998;DHT22;10657;51.276;6.390;2022-10-17T03:39:27;14.60;99.90
20998;DHT22;10657;51.276;6.390;2022-10-17T03:41:54;14.60;99.90
20998;DHT22;10657;51.276;6.390;2022-10-17T03:44:20;14.60;99.90
20998;DHT22;10657;51.276;6.390;2022-10-17T03:46:47;14.60;99.90
20998;DHT22;10657;51.276;6.390;2022-10-17T03:49:14;14.50;99.90
20998;DHT22;10657;51.276;6.390;2022-10-17T03:51:40;14.60;99.90
20998;DHT22;10657;51.276;6.390;2022-10-17T03:54:07;14.50;99.90
20998;DHT22;10657;51.276;6.390;2022-10-17T03:56:34;14.50;99.90
20998;DHT22;10657;51.276;6.390;2022-10-17T03:59:00;14.50;99.90
20998;DHT22;10657;51.276;6.390;2022-10-17T04:01:27;14.50;99.90
20998;DHT22;10657;51.276;6.390;2022-10-17T04:03:55;14.50;99.90
20998;DHT22;10657;51.276;6.390;2022-10-17T04:06:22;14.50;99.90
20998;DHT22;10657;51.276;6.390;2022-10-17T04:08:49;14.50;99.90
20998;DHT22;10657;51.276;6.390;2022-10-17T04:11:18;14.60;99.90
20998;DHT22;10657;51.276;6.390;2022-10-17T04:13:46;14.60;99.90
20998;DHT22;10657;51.276;6.390;2022-10-17T04:16:15;14.60;99.90
20998;DHT22;10657;51.276;6.390;2022-10-17T04:18:42;14.60;99.90
20998;DHT22;10657;51.276;6.390;2022-10-17T04:21:09;14.60;99.90
20998;DHT22;10657;51.276;6.390;2022-10-17T04:23:36;14.60;99.90
20998;DHT22;10657;51.276;6.390;2022-10-17T04:26:05;14.60;99.90
20998;DHT22;10657;51.276;6.390;2022-10-17T04:28:32;14.50;99.90
20998;DHT22;10657;51.276;6.390;2022-10-17T04:31:00;14.60;99.90
20998;DHT22;10657;51.276;6.390;2022-10-17T04:33:28;14.50;99.90
20998;DHT22;10657;51.276;6.390;2022-10-17T04:35:59;14.60;99.90
20998;DHT22;10657;51.276;6.390;2022-10-17T04:38:27;14.60;99.90
20998;DHT22;10657;51.276;6.390;2022-10-17T04:40:58;14.60;99.90
20998;DHT22;10657;51.276;6.390;2022-10-17T04:43:29;14.60;99.90
20998;DHT22;10657;51.276;6.390;2022-10-17T04:45:57;14.60;99.90
20998;DHT22;10657;51.276;6.390;2022-10-17T04:48:24;14.60;99.90
20998;DHT22;10657;51.276;6.390;2022-10-17T04:50:54;14.70;99.90
20998;DHT22;10657;51.276;6.390;2022-10-17T04:53:21;14.70;99.90
20998;DHT22;10657;51.276;6.390;2022-10-17T04:55:48;14.70;99.90
20998;DHT22;10657;51.276;6.390;2022-10-17T04:58:16;14.70;99.90
20998;DHT22;10657;51.276;6.390;2022-10-17T05:00:42;14.70;99.90
20998;DHT22;10657;51.276;6.390;2022-10-17T05:03:09;14.70;99.90
20998;DHT22;10657;51.276;6.390;2022-10-17T05:05:37;14.70;99.90
20998;DHT22;10657;51.276;6.390;2022-10-17T05:08:05;14.70;99.90
20998;DHT22;10657;51.276;6.390;2022-10-17T05:10:40;14.70;99.90
20998;DHT22;10657;51.276;6.390;2022-10-17T05:13:08;14.70;99.90
20998;DHT22;10657;51.276;6.390;2022-10-17T05:15:35;14.70;99.90
20998;DHT22;10657;51.276;6.390;2022-10-17T05:18:03;14.70;99.90
20998;DHT22;10657;51.276;6.390;2022-10-17T05:20:31;14.60;99.90
20998;DHT22;10657;51.276;6.390;2022-10-17T05:22:58;14.70;99.90
20998;DHT22;10657;51.276;6.390;2022-10-17T05:25:25;14.60;99.90
20998;DHT22;10657;51.276;6.390;2022-10-17T05:27:53;14.60;99.90
20998;DHT22;10657;51.276;6.390;2022-10-17T05:30:19;14.60;99.90
20998;DHT22;10657;51.276;6.390;2022-10-17T05:32:46;14.60;99.90
20998;DHT22;10657;51.276;6.390;2022-10-17T05:35:12;14.60;99.90
20998;DHT22;10657;51.276;6.390;2022-10-17T05:37:39;14.60;99.90
20998;DHT22;10657;51.276;6.390;2022-10-17T05:40:06;14.60;99.90
20998;DHT22;10657;51.276;6.390;2022-10-17T05:42:33;14.60;99.90
20998;DHT22;10657;51.276;6.390;2022-10-17T05:45:00;14.60;99.90
20998;DHT22;10657;51.276;6.390;2022-10-17T05:47:26;14.50;99.90
20998;DHT22;10657;51.276;6.390;2022-10-17T05:49:54;14.50;99.90
20998;DHT22;10657;51.276;6.390;2022-10-17T05:52:20;14.50;99.90
20998;DHT22;10657;51.276;6.390;2022-10-17T05:54:47;14.50;99.90
20998;DHT22;10657;51.276;6.390;2022-10-17T05:57:13;14.50;99.90
20998;DHT22;10657;51.276;6.390;2022-10-17T05:59:40;14.50;99.90
20998;DHT22;10657;51.276;6.390;2022-10-17T06:02:08;14.50;99.90
20998;DHT22;10657;51.276;6.390;2022-10-17T06:04:36;14.50;99.90
20998;DHT22;10657;51.276;6.390;2022-10-17T06:07:03;14.50;99.90
20998;DHT22;10657;51.276;6.390;2022-10-17T06:09:30;14.60;99.90
20998;DHT22;10657;51.276;6.390;2022-10-17T06:11:57;14.60;99.90
20998;DHT22;10657;51.276;6.390;2022-10-17T06:14:23;14.60;99.90
20998;DHT22;10657;51.276;6.390;2022-10-17T06:16:50;14.60;99.90
20998;DHT22;10657;51.276;6.390;2022-10-17T06:19:17;14.70;99.90
20998;DHT22;10657;51.276;6.390;2022-10-17T06:21:43;14.70;99.90
20998;DHT22;10657;51.276;6.390;2022-10-17T06:24:10;14.70;99.90
20998;DHT22;10657;51.276;6.390;2022-10-17T06:26:37;14.80;99.90
20998;DHT22;10657;51.276;6.390;2022-10-17T06:29:04;14.80;99.90
20998;DHT22;10657;51.276;6.390;2022-10-17T06:31:30;14.80;99.90
20998;DHT22;10657;51.276;6.390;2022-10-17T06:33:57;14.80;99.90
20998;DHT22;10657;51.276;6.390;2022-10-17T06:36:23;14.80;99.90
20998;DHT22;10657;51.276;6.390;2022-10-17T06:38:50;14.90;99.90
20998;DHT22;10657;51.276;6.390;2022-10-17T06:41:17;14.90;99.90
20998;DHT22;10657;51.276;6.390;2022-10-17T06:43:46;14.90;99.90
20998;DHT22;10657;51.276;6.390;2022-10-17T06:46:15;14.90;99.90
20998;DHT22;10657;51.276;6.390;2022-10-17T06:48:42;14.90;99.90
20998;DHT22;10657;51.276;6.390;2022-10-17T06:51:10;14.90;99.90
20998;DHT22;10657;51.276;6.390;2022-10-17T06:53:38;14.90;99.90
20998;DHT22;10657;51.276;6.390;2022-10-17T06:56:06;15.00;99.90
20998;DHT22;10657;51.276;6.390;2022-10-17T06:58:35;15.00;99.90
20998;DHT22;10657;51.276;6.390;2022-10-17T07:01:10;15.00;99.90
20998;DHT22;10657;51.276;6.390;2022-10-17T07:03:38;15.00;99.90
20998;DHT22;10657;51.276;6.390;2022-10-17T07:06:06;15.10;99.90
20998;DHT22;10657;51.276;6.390;2022-10-17T07:08:32;15.10;99.90
20998;DHT22;10657;51.276;6.390;2022-10-17T07:11:15;15.20;99.90
20998;DHT22;10657;51.276;6.390;2022-10-17T07:13:42;15.20;99.90
20998;DHT22;10657;51.276;6.390;2022-10-17T07:16:09;15.30;99.90
20998;DHT22;10657;51.276;6.390;2022-10-17T07:18:36;15.30;99.90
20998;DHT22;10657;51.276;6.390;2022-10-17T07:21:04;15.40;99.90
20998;DHT22;10657;51.276;6.390;2022-10-17T07:23:31;15.40;99.90
20998;DHT22;10657;51.276;6.390;2022-10-17T07:26:00;15.50;99.90
20998;DHT22;10657;51.276;6.390;2022-10-17T07:28:27;15.50;99.90
20998;DHT22;10657;51.276;6.390;2022-10-17T07:30:54;15.60;99.90
20998;DHT22;10657;51.276;6.390;2022-10-17T07:33:21;15.60;99.90
20998;DHT22;10657;51.276;6.390;2022-10-17T07:35:47;15.60;99.90
20998;DHT22;10657;51.276;6.390;2022-10-17T07:38:14;15.70;99.90
20998;DHT22;10657;51.276;6.390;2022-10-17T07:40:41;15.70;99.90
20998;DHT22;10657;51.276;6.390;2022-10-17T07:43:07;15.80;99.90
20998;DHT22;10657;51.276;6.390;2022-10-17T07:45:34;15.80;99.90
20998;DHT22;10657;51.276;6.390;2022-10-17T07:48:00;15.90;99.90
20998;DHT22;10657;51.276;6.390;2022-10-17T07:50:27;16.00;99.90
20998;DHT22;10657;51.276;6.390;2022-10-17T07:52:54;16.10;99.90
20998;DHT22;10657;51.276;6.390;2022-10-17T07:55:21;16.10;99.90
20998;DHT22;10657;51.276;6.390;2022-10-17T07:57:47;16.20;99.90
20998;DHT22;10657;51.276;6.390;2022-10-17T08:00:14;16.30;99.90
20998;DHT22;10657;51.276;6.390;2022-10-17T08:02:41;16.30;99.90
20998;DHT22;10657;51.276;6.390;2022-10-17T08:05:07;16.30;99.90
20998;DHT22;10657;51.276;6.390;2022-10-17T08:07:34;16.40;99.90
20998;DHT22;10657;51.276;6.390;2022-10-17T08:10:01;16.50;99.90
20998;DHT22;10657;51.276;6.390;2022-10-17T08:12:28;16.60;99.90
20998;DHT22;10657;51.276;6.390;2022-10-17T08:14:58;16.60;99.90
20998;DHT22;10657;51.276;6.390;2022-10-17T08:17:25;16.70;99.90
20998;DHT22;10657;51.276;6.390;2022-10-17T08:19:52;16.80;99.90
20998;DHT22;10657;51.276;6.390;2022-10-17T08:22:18;16.80;99.90
20998;DHT22;10657;51.276;6.390;2022-10-17T08:24:45;16.90;99.90
20998;DHT22;10657;51.276;6.390;2022-10-17T08:27:12;17.00;99.90
20998;DHT22;10657;51.276;6.390;2022-10-17T08:29:39;17.10;99.90
20998;DHT22;10657;51.276;6.390;2022-10-17T08:32:06;17.20;99.90
20998;DHT22;10657;51.276;6.390;2022-10-17T08:34:35;17.20;99.90
20998;DHT22;10657;51.276;6.390;2022-10-17T08:37:02;17.30;99.90
20998;DHT22;10657;51.276;6.390;2022-10-17T08:39:29;17.30;99.90
20998;DHT22;10657;51.276;6.390;2022-10-17T08:42:05;17.40;99.90
20998;DHT22;10657;51.276;6.390;2022-10-17T08:47:37;17.40;99.90
20998;DHT22;10657;51.276;6.390;2022-10-17T08:50:10;17.50;99.90
20998;DHT22;10657;51.276;6.390;2022-10-17T08:52:52;17.60;99.90
20998;DHT22;10657;51.276;6.390;2022-10-17T08:55:30;17.60;99.90
20998;DHT22;10657;51.276;6.390;2022-10-17T08:57:57;17.60;99.90
20998;DHT22;10657;51.276;6.390;2022-10-17T09:00:24;17.70;99.90
20998;DHT22;10657;51.276;6.390;2022-10-17T09:03:13;17.70;99.90
20998;DHT22;10657;51.276;6.390;2022-10-17T09:05:51;17.70;99.90
20998;DHT22;10657;51.276;6.390;2022-10-17T09:08:38;17.80;99.90
20998;DHT22;10657;51.276;6.390;2022-10-17T09:11:32;17.90;99.90
20998;DHT22;10657;51.276;6.390;2022-10-17T09:17:02;18.00;99.90
20998;DHT22;10657;51.276;6.390;2022-10-17T09:19:36;18.10;99.90
20998;DHT22;10657;51.276;6.390;2022-10-17T09:22:16;18.10;99.90
20998;DHT22;10657;51.276;6.390;2022-10-17T09:27:35;18.00;99.90
20998;DHT22;10657;51.276;6.390;2022-10-17T09:30:16;18.00;99.90
20998;DHT22;10657;51.276;6.390;2022-10-17T09:33:33;18.00;99.90
20998;DHT22;10657;51.276;6.390;2022-10-17T09:36:22;18.10;99.90
20998;DHT22;10657;51.276;6.390;2022-10-17T09:38:53;18.20;99.90
20998;DHT22;10657;51.276;6.390;2022-10-17T09:41:50;18.20;99.90
20998;DHT22;10657;51.276;6.390;2022-10-17T09:44:29;18.20;99.90
20998;DHT22;10657;51.276;6.390;2022-10-17T09:47:16;18.10;99.90
20998;DHT22;10657;51.276;6.390;2022-10-17T09:49:47;18.10;99.90
20998;DHT22;10657;51.276;6.390;2022-10-17T09:52:17;18.10;99.90
20998;DHT22;10657;51.276;6.390;2022-10-17T09:54:49;18.10;99.90
20998;DHT22;10657;51.276;6.390;2022-10-17T09:57:18;18.10;99.90
20998;DHT22;10657;51.276;6.390;2022-10-17T09:59:46;18.10;99.90
20998;DHT22;10657;51.276;6.390;2022-10-17T10:02:21;18.10;99.90
20998;DHT22;10657;51.276;6.390;2022-10-17T10:05:00;18.10;99.90
20998;DHT22;10657;51.276;6.390;2022-10-17T10:07:37;18.10;99.90
20998;DHT22;10657;51.276;6.390;2022-10-17T10:10:23;18.10;99.90
20998;DHT22;10657;51.276;6.390;2022-10-17T10:13:16;18.10;99.90
20998;DHT22;10657;51.276;6.390;2022-10-17T10:15:45;18.20;99.90
20998;DHT22;10657;51.276;6.390;2022-10-17T10:23:32;18.40;99.90
20998;DHT22;10657;51.276;6.390;2022-10-17T10:26:11;18.40;99.90
20998;DHT22;10657;51.276;6.390;2022-10-17T10:28:56;18.50;99.90
20998;DHT22;10657;51.276;6.390;2022-10-17T10:31:29;18.60;99.90
20998;DHT22;10657;51.276;6.390;2022-10-17T10:33:59;18.70;99.90
20998;DHT22;10657;51.276;6.390;2022-10-17T10:36:45;18.70;99.90
20998;DHT22;10657;51.276;6.390;2022-10-17T10:39:30;18.60;99.90
20998;DHT22;10657;51.276;6.390;2022-10-17T10:41:59;18.60;99.90
20998;DHT22;10657;51.276;6.390;2022-10-17T10:44:28;18.60;99.90
20998;DHT22;10657;51.276;6.390;2022-10-17T10:47:19;18.50;99.90
20998;DHT22;10657;51.276;6.390;2022-10-17T10:49:46;18.50;99.90
20998;DHT22;10657;51.276;6.390;2022-10-17T10:52:53;18.40;99.90
20998;DHT22;10657;51.276;6.390;2022-10-17T10:55:25;18.30;99.90
20998;DHT22;10657;51.276;6.390;2022-10-17T10:57:57;18.30;99.90
20998;DHT22;10657;51.276;6.390;2022-10-17T11:00:27;18.20;99.90
20998;DHT22;10657;51.276;6.390;2022-10-17T11:03:17;18.10;99.90
20998;DHT22;10657;51.276;6.390;2022-10-17T11:05:55;18.10;99.90
20998;DHT22;10657;51.276;6.390;2022-10-17T11:08:33;18.20;99.90
20998;DHT22;10657;51.276;6.390;2022-10-17T11:22:42;18.40;99.90
20998;DHT22;10657;51.276;6.390;2022-10-17T11:27:53;18.40;99.90
20998;DHT22;10657;51.276;6.390;2022-10-17T11:30:22;18.40;99.90
20998;DHT22;10657;51.276;6.390;2022-10-17T11:32:57;18.40;99.90
20998;DHT22;10657;51.276;6.390;2022-10-17T11:35:37;18.40;99.90
20998;DHT22;10657;51.276;6.390;2022-10-17T11:38:37;18.40;99.90
20998;DHT22;10657;51.276;6.390;2022-10-17T11:41:05;18.40;99.90
20998;DHT22;10657;51.276;6.390;2022-10-17T11:43:40;18.40;99.90
20998;DHT22;10657;51.276;6.390;2022-10-17T11:46:18;18.40;99.90
20998;DHT22;10657;51.276;6.390;2022-10-17T11:49:05;18.40;99.90
20998;DHT22;10657;51.276;6.390;2022-10-17T11:54:44;18.30;99.90
20998;DHT22;10657;51.276;6.390;2022-10-17T12:00:11;18.40;99.90
20998;DHT22;10657;51.276;6.390;2022-10-17T12:05:48;18.40;99.90
20998;DHT22;10657;51.276;6.390;2022-10-17T12:11:15;18.30;99.90
20998;DHT22;10657;51.276;6.390;2022-10-17T12:13:51;18.30;99.90
20998;DHT22;10657;51.276;6.390;2022-10-17T12:18:46;18.40;99.90
20998;DHT22;10657;51.276;6.390;2022-10-17T12:21:13;18.40;99.90
20998;DHT22;10657;51.276;6.390;2022-10-17T12:23:50;18.60;99.90
20998;DHT22;10657;51.276;6.390;2022-10-17T12:26:25;18.80;99.90
20998;DHT22;10657;51.276;6.390;2022-10-17T12:28:52;18.80;99.90
20998;DHT22;10657;51.276;6.390;2022-10-17T12:33:58;18.80;99.90
20998;DHT22;10657;51.276;6.390;2022-10-17T12:49:45;19.00;99.90
20998;DHT22;10657;51.276;6.390;2022-10-17T12:57:53;19.10;99.90
20998;DHT22;10657;51.276;6.390;2022-10-17T13:00:35;19.00;99.90
20998;DHT22;10657;51.276;6.390;2022-10-17T13:03:17;19.10;99.90
20998;DHT22;10657;51.276;6.390;2022-10-17T13:05:49;19.00;99.90
20998;DHT22;10657;51.276;6.390;2022-10-17T13:08:31;19.00;99.90
20998;DHT22;10657;51.276;6.390;2022-10-17T13:10:59;19.00;99.90
20998;DHT22;10657;51.276;6.390;2022-10-17T13:13:49;18.90;99.90
20998;DHT22;10657;51.276;6.390;2022-10-17T13:16:27;18.80;99.90
20998;DHT22;10657;51.276;6.390;2022-10-17T13:18:55;18.90;99.90
20998;DHT22;10657;51.276;6.390;2022-10-17T13:21:21;18.90;99.90
20998;DHT22;10657;51.276;6.390;2022-10-17T13:23:48;18.80;99.90
20998;DHT22;10657;51.276;6.390;2022-10-17T13:26:20;18.70;99.90
20998;DHT22;10657;51.276;6.390;2022-10-17T13:31:37;18.70;99.90
20998;DHT22;10657;51.276;6.390;2022-10-17T13:34:14;18.80;99.90
20998;DHT22;10657;51.276;6.390;2022-10-17T13:36:41;18.80;99.90
20998;DHT22;10657;51.276;6.390;2022-10-17T13:39:17;18.80;99.90
20998;DHT22;10657;51.276;6.390;2022-10-17T13:41:54;18.80;99.90
20998;DHT22;10657;51.276;6.390;2022-10-17T13:44:32;18.80;99.90
20998;DHT22;10657;51.276;6.390;2022-10-17T13:46:59;18.90;99.90
20998;DHT22;10657;51.276;6.390;2022-10-17T13:49:33;19.00;99.90
20998;DHT22;10657;51.276;6.390;2022-10-17T13:52:02;19.00;99.90
20998;DHT22;10657;51.276;6.390;2022-10-17T13:54:40;19.00;99.90
20998;DHT22;10657;51.276;6.390;2022-10-17T13:59:49;19.00;99.90
20998;DHT22;10657;51.276;6.390;2022-10-17T14:02:22;19.00;99.90
20998;DHT22;10657;51.276;6.390;2022-10-17T14:05:13;19.00;99.90
20998;DHT22;10657;51.276;6.390;2022-10-17T14:07:54;19.00;99.90
20998;DHT22;10657;51.276;6.390;2022-10-17T14:10:38;19.00;99.90
20998;DHT22;10657;51.276;6.390;2022-10-17T14:13:06;19.00;99.90
20998;DHT22;10657;51.276;6.390;2022-10-17T14:15:44;19.00;99.90
20998;DHT22;10657;51.276;6.390;2022-10-17T14:18:19;19.10;99.90
20998;DHT22;10657;51.276;6.390;2022-10-17T14:20:48;19.00;99.90
20998;DHT22;10657;51.276;6.390;2022-10-17T14:23:37;19.00;99.90
20998;DHT22;10657;51.276;6.390;2022-10-17T14:28:31;19.00;99.90
20998;DHT22;10657;51.276;6.390;2022-10-17T14:31:23;19.00;99.90
20998;DHT22;10657;51.276;6.390;2022-10-17T14:33:52;19.00;99.90
20998;DHT22;10657;51.276;6.390;2022-10-17T14:36:20;18.90;99.90
20998;DHT22;10657;51.276;6.390;2022-10-17T14:38:55;18.90;99.90
20998;DHT22;10657;51.276;6.390;2022-10-17T14:41:23;18.90;99.90
20998;DHT22;10657;51.276;6.390;2022-10-17T14:44:18;18.80;99.90
20998;DHT22;10657;51.276;6.390;2022-10-17T14:46:47;18.80;99.90
20998;DHT22;10657;51.276;6.390;2022-10-17T14:49:20;18.90;99.90
20998;DHT22;10657;51.276;6.390;2022-10-17T14:52:12;18.80;99.90
20998;DHT22;10657;51.276;6.390;2022-10-17T14:54:48;18.80;99.90
20998;DHT22;10657;51.276;6.390;2022-10-17T14:59:54;18.70;99.90
20998;DHT22;10657;51.276;6.390;2022-10-17T15:02:26;18.60;99.90
20998;DHT22;10657;51.276;6.390;2022-10-17T15:04:54;18.60;99.90
20998;DHT22;10657;51.276;6.390;2022-10-17T15:07:21;18.50;99.90
20998;DHT22;10657;51.276;6.390;2022-10-17T15:09:50;18.50;99.90
20998;DHT22;10657;51.276;6.390;2022-10-17T15:12:19;18.40;99.90
20998;DHT22;10657;51.276;6.390;2022-10-17T15:14:47;18.40;99.90
20998;DHT22;10657;51.276;6.390;2022-10-17T15:17:17;18.30;99.90
20998;DHT22;10657;51.276;6.390;2022-10-17T15:19:46;18.20;99.90
20998;DHT22;10657;51.276;6.390;2022-10-17T15:22:13;18.20;99.90
20998;DHT22;10657;51.276;6.390;2022-10-17T15:24:41;18.20;99.90
20998;DHT22;10657;51.276;6.390;2022-10-17T15:27:21;18.10;99.90
20998;DHT22;10657;51.276;6.390;2022-10-17T15:29:48;18.10;99.90
20998;DHT22;10657;51.276;6.390;2022-10-17T15:32:16;18.10;99.90
20998;DHT22;10657;51.276;6.390;2022-10-17T15:34:42;18.00;99.90
20998;DHT22;10657;51.276;6.390;2022-10-17T15:37:16;18.00;99.90
20998;DHT22;10657;51.276;6.390;2022-10-17T15:39:44;18.00;99.90
20998;DHT22;10657;51.276;6.390;2022-10-17T15:42:19;18.00;99.90
20998;DHT22;10657;51.276;6.390;2022-10-17T15:44:46;17.90;99.90
20998;DHT22;10657;51.276;6.390;2022-10-17T15:47:30;17.90;99.90
20998;DHT22;10657;51.276;6.390;2022-10-17T15:50:00;17.80;99.90
20998;DHT22;10657;51.276;6.390;2022-10-17T15:52:27;17.80;99.90
20998;DHT22;10657;51.276;6.390;2022-10-17T15:54:54;17.70;99.90
20998;DHT22;10657;51.276;6.390;2022-10-17T15:57:27;17.60;99.90
20998;DHT22;10657;51.276;6.390;2022-10-17T15:59:56;17.60;99.90
20998;DHT22;10657;51.276;6.390;2022-10-17T16:02:24;17.60;99.90
20998;DHT22;10657;51.276;6.390;2022-10-17T16:04:51;17.50;99.90
20998;DHT22;10657;51.276;6.390;2022-10-17T16:07:19;17.50;99.90
20998;DHT22;10657;51.276;6.390;2022-10-17T16:09:46;17.40;99.90
20998;DHT22;10657;51.276;6.390;2022-10-17T16:12:25;17.40;99.90
20998;DHT22;10657;51.276;6.390;2022-10-17T16:14:53;17.40;99.90
20998;DHT22;10657;51.276;6.390;2022-10-17T16:17:19;17.40;99.90
20998;DHT22;10657;51.276;6.390;2022-10-17T16:19:46;17.30;99.90
20998;DHT22;10657;51.276;6.390;2022-10-17T16:22:20;17.40;99.90
20998;DHT22;10657;51.276;6.390;2022-10-17T16:24:48;17.30;99.90
20998;DHT22;10657;51.276;6.390;2022-10-17T16:27:15;17.30;99.90
20998;DHT22;10657;51.276;6.390;2022-10-17T16:29:41;17.30;99.90
20998;DHT22;10657;51.276;6.390;2022-10-17T16:32:09;17.30;99.90
20998;DHT22;10657;51.276;6.390;2022-10-17T16:34:35;17.30;99.90
20998;DHT22;10657;51.276;6.390;2022-10-17T16:37:02;17.30;99.90
20998;DHT22;10657;51.276;6.390;2022-10-17T16:39:29;17.30;99.90
20998;DHT22;10657;51.276;6.390;2022-10-17T16:41:55;17.20;99.90
20998;DHT22;10657;51.276;6.390;2022-10-17T16:44:24;17.20;99.90
20998;DHT22;10657;51.276;6.390;2022-10-17T16:46:50;17.20;99.90
20998;DHT22;10657;51.276;6.390;2022-10-17T16:49:17;17.20;99.90
20998;DHT22;10657;51.276;6.390;2022-10-17T16:51:44;17.10;99.90
20998;DHT22;10657;51.276;6.390;2022-10-17T16:54:10;17.10;99.90
20998;DHT22;10657;51.276;6.390;2022-10-17T16:56:37;17.00;99.90
20998;DHT22;10657;51.276;6.390;2022-10-17T16:59:04;17.00;99.90
20998;DHT22;10657;51.276;6.390;2022-10-17T17:01:30;17.00;99.90
20998;DHT22;10657;51.276;6.390;2022-10-17T17:03:57;17.00;99.90
20998;DHT22;10657;51.276;6.390;2022-10-17T17:06:26;17.00;99.90
20998;DHT22;10657;51.276;6.390;2022-10-17T17:08:54;17.00;99.90
20998;DHT22;10657;51.276;6.390;2022-10-17T17:11:25;17.00;99.90
20998;DHT22;10657;51.276;6.390;2022-10-17T17:13:56;17.00;99.90
20998;DHT22;10657;51.276;6.390;2022-10-17T17:16:25;17.00;99.90
20998;DHT22;10657;51.276;6.390;2022-10-17T17:19:02;16.90;99.90
20998;DHT22;10657;51.276;6.390;2022-10-17T17:21:30;16.90;99.90
20998;DHT22;10657;51.276;6.390;2022-10-17T17:23:59;16.80;99.90
20998;DHT22;10657;51.276;6.390;2022-10-17T17:26:29;16.80;99.90
20998;DHT22;10657;51.276;6.390;2022-10-17T17:28:58;16.90;99.90
20998;DHT22;10657;51.276;6.390;2022-10-17T17:31:28;16.90;99.90
20998;DHT22;10657;51.276;6.390;2022-10-17T17:33:55;16.90;99.90
20998;DHT22;10657;51.276;6.390;2022-10-17T17:36:24;16.90;99.90
20998;DHT22;10657;51.276;6.390;2022-10-17T17:38:54;16.90;99.90